Webster, NY (14580)

3:34 AM EST on December 22, 2014 (GMT -0500)
Webster | Change Station
CLOSE
Current Station
Personal Weather Station
Location: Webster, NY
Elevation: 364 ft
Nearby Weather Stations

Elev 364 ft 43.24 °N, 77.47 °W | Updated 8 minutes ago

Overcast
Overcast
30.9 °F
Feels Like 27 °F
N
3.8
Wind Variable Wind from South

Today
High -- | Low -- °F
--% Chance of Precip.
Yesterday
High -- | Low -- °F
Precip. -- in
7:39 AM 4:37 PM
New Moon, 0% visible
Pressure 30.32 in
Visibility 10.0 miles
Clouds Mostly Cloudy 2600 ft
Mostly Cloudy 4000 ft
Windchill 27 °F
Dew Point 24 °F
Humidity 74%
Rainfall 0.00 in
Snow Depth Not available.
UV 0 out of 12
Pollen .10 out of 12
Air Quality Not available.
Flu Activity Not available.
METAR KROC 220754Z 17006KT 10SM BKN026 BKN040 M01/M06 A3028 RMK AO2 SLP265 T10061061

More Conditions Fewer Conditions

Pressure 30.32 in
Visibility 10.0 miles
Clouds Mostly Cloudy 2600 ft
Mostly Cloudy 4000 ft
Windchill 27 °F
Dew Point 24 °F
Humidity 74%
Rainfall 0.00 in
Snow Depth Not available.
UV 0 out of 12
Pollen .10 out of 12
Air Quality Not available.
Flu Activity Not available.
METAR KROC 220754Z 17006KT 10SM BKN026 BKN040 M01/M06 A3028 RMK AO2 SLP265 T10061061

More Conditions Fewer Conditions

10-Day Weather Forecast

Almanac

Astronomy

Dec. 22, 2014 Rise Set
Actual Time
Civil Twilight
Nautical Twilight
Astronomical Twilight
Moon
Length of Visible Light
Length of Day
Tomorrow will be .
, % of the Moon is Illuminated

Today's Extremes

State Highs State Lows

Community

WunderPhotos

Upload Photos

1,779,580 photos uploaded!

WunderBlogs® & News

Nearby

Air Quality

  Air Quality AQ Index Pollutant
Not available.

Snow Depth

Station Depth Elevation

Earthquake Activity

City Distance Mag. Time & Date
Minimum magnitude displayed is 2.5.

Coastal Water Temperatures

Place Temperature

Nearby Weather Stations